createdAt,value
2023-03-23T16:02:50.960Z,23.47
2023-03-23T16:07:52.483Z,23.44
2023-03-23T16:12:53.968Z,23.47
2023-03-23T16:17:55.698Z,23.50
2023-03-23T16:22:57.392Z,23.53
2023-03-23T16:27:58.786Z,23.50
2023-03-23T16:33:01.131Z,23.54
2023-03-23T16:38:07.728Z,23.54
2023-03-23T16:43:10.673Z,23.50
2023-03-23T16:48:13.281Z,23.49
2023-03-23T16:53:14.716Z,23.51
2023-03-23T16:58:17.787Z,23.48
2023-03-23T17:03:20.249Z,23.41
2023-03-23T17:08:21.693Z,23.41
2023-03-23T17:13:25.236Z,23.44
2023-03-23T17:18:28.493Z,23.43
2023-03-23T17:23:29.942Z,23.41
2023-03-23T17:28:31.413Z,23.40
2023-03-23T17:33:32.885Z,23.36
2023-03-23T17:38:34.281Z,23.38
2023-03-23T17:43:36.293Z,23.36
2023-03-23T17:48:37.767Z,23.28
2023-03-23T17:53:39.240Z,23.28
2023-03-23T17:58:40.902Z,23.20
2023-03-23T18:03:44.087Z,23.14
2023-03-23T18:08:46.767Z,23.15
2023-03-23T18:13:48.163Z,23.09
2023-03-23T18:18:49.569Z,23.07
2023-03-23T18:23:58.671Z,23.01
2023-03-23T18:29:01.000Z,23.02
2023-03-23T18:34:02.407Z,23.02
2023-03-23T18:39:03.888Z,23.01
2023-03-23T18:44:06.135Z,22.97
2023-03-23T18:49:07.538Z,22.96
2023-03-23T18:54:08.938Z,22.96
2023-03-23T18:59:10.591Z,22.91
2023-03-23T19:04:13.399Z,22.87
2023-03-23T19:09:15.650Z,22.88
2023-03-23T19:14:18.279Z,22.87
2023-03-23T19:19:19.928Z,22.76
2023-03-23T19:24:21.457Z,22.74
2023-03-23T19:29:27.057Z,22.80
2023-03-23T19:34:29.523Z,22.76
2023-03-23T19:39:31.762Z,22.69
2023-03-23T19:44:34.144Z,22.70
2023-03-23T19:49:36.073Z,22.72
2023-03-23T19:54:38.360Z,22.65
2023-03-23T19:59:39.829Z,22.65
2023-03-23T20:04:41.542Z,22.66
2023-03-23T20:09:43.439Z,22.65
2023-03-23T20:14:45.409Z,22.59
2023-03-23T20:19:47.007Z,22.58
2023-03-23T20:24:49.472Z,22.61
2023-03-23T20:29:52.182Z,22.56
2023-03-23T20:34:53.580Z,22.54
2023-03-23T20:39:55.296Z,22.48
2023-03-23T20:44:57.203Z,22.55
2023-03-23T20:49:58.645Z,22.52
2023-03-23T20:55:00.762Z,22.52
2023-03-23T21:00:06.344Z,22.53
2023-03-23T21:05:08.854Z,22.53
2023-03-23T21:10:10.242Z,22.43
2023-03-23T21:15:12.182Z,22.42
2023-03-23T21:20:13.567Z,22.45
2023-03-23T21:25:15.109Z,22.44
2023-03-23T21:30:16.518Z,22.37
2023-03-23T21:35:17.906Z,22.32
2023-03-23T21:40:19.877Z,22.41
2023-03-23T21:45:21.814Z,22.43
2023-03-23T21:50:24.141Z,22.42
2023-03-23T21:55:29.584Z,22.41
2023-03-23T22:00:30.992Z,22.43
2023-03-23T22:05:32.895Z,22.42
2023-03-23T22:10:34.290Z,22.42
2023-03-23T22:15:36.744Z,22.41
2023-03-23T22:20:40.221Z,22.45
2023-03-23T22:25:41.748Z,22.42
2023-03-23T22:30:43.352Z,22.39
2023-03-23T22:35:47.427Z,22.37
2023-03-23T22:40:59.224Z,22.43
2023-03-23T22:46:00.691Z,22.36
2023-03-23T22:51:03.482Z,22.38
2023-03-23T22:56:05.487Z,22.38
2023-03-23T23:01:09.043Z,22.41
2023-03-23T23:06:11.711Z,22.37
2023-03-23T23:11:17.279Z,22.38
2023-03-23T23:16:19.207Z,22.38
2023-03-23T23:21:21.770Z,22.42
2023-03-23T23:26:23.409Z,22.29
2023-03-23T23:31:27.273Z,22.34
2023-03-23T23:36:29.596Z,22.37
2023-03-23T23:41:31.599Z,22.31
2023-03-23T23:46:33.080Z,22.27
2023-03-23T23:51:34.747Z,22.31
2023-03-23T23:56:36.243Z,22.34
